sensor_id;sensor_type;location;lat;lon;timestamp;P1;durP1;ratioP1;P2;durP2;ratioP2
15958;SDS011;8078;47.822;9.402;2022-10-04T00:01:29;17.60;;;9.77;;
15958;SDS011;8078;47.822;9.402;2022-10-04T00:04:20;16.60;;;9.03;;
15958;SDS011;8078;47.822;9.402;2022-10-04T00:07:05;18.87;;;9.10;;
15958;SDS011;8078;47.822;9.402;2022-10-04T00:09:42;19.57;;;8.87;;
15958;SDS011;8078;47.822;9.402;2022-10-04T00:12:21;17.83;;;8.97;;
15958;SDS011;8078;47.822;9.402;2022-10-04T00:14:58;17.70;;;8.83;;
15958;SDS011;8078;47.822;9.402;2022-10-04T00:17:28;16.60;;;9.20;;
15958;SDS011;8078;47.822;9.402;2022-10-04T00:19:56;15.23;;;8.90;;
15958;SDS011;8078;47.822;9.402;2022-10-04T00:22:23;16.83;;;9.20;;
15958;SDS011;8078;47.822;9.402;2022-10-04T00:27:32;16.33;;;8.10;;
15958;SDS011;8078;47.822;9.402;2022-10-04T00:32:30;16.13;;;8.30;;
15958;SDS011;8078;47.822;9.402;2022-10-04T00:38:07;11.70;;;7.87;;
15958;SDS011;8078;47.822;9.402;2022-10-04T00:40:41;16.10;;;7.87;;
15958;SDS011;8078;47.822;9.402;2022-10-04T00:43:14;20.93;;;9.73;;
15958;SDS011;8078;47.822;9.402;2022-10-04T00:46:06;18.90;;;8.67;;
15958;SDS011;8078;47.822;9.402;2022-10-04T00:54:07;14.57;;;8.73;;
15958;SDS011;8078;47.822;9.402;2022-10-04T00:56:55;13.33;;;7.80;;
15958;SDS011;8078;47.822;9.402;2022-10-04T01:07:32;17.07;;;8.70;;
15958;SDS011;8078;47.822;9.402;2022-10-04T01:15:25;19.03;;;7.47;;
15958;SDS011;8078;47.822;9.402;2022-10-04T01:18:11;15.57;;;6.90;;
15958;SDS011;8078;47.822;9.402;2022-10-04T01:21:01;15.07;;;7.33;;
15958;SDS011;8078;47.822;9.402;2022-10-04T01:23:40;14.87;;;7.83;;
15958;SDS011;8078;47.822;9.402;2022-10-04T01:28:54;14.90;;;7.33;;
15958;SDS011;8078;47.822;9.402;2022-10-04T01:31:23;20.10;;;7.83;;
15958;SDS011;8078;47.822;9.402;2022-10-04T01:33:53;13.97;;;7.47;;
15958;SDS011;8078;47.822;9.402;2022-10-04T01:36:19;13.77;;;7.90;;
15958;SDS011;8078;47.822;9.402;2022-10-04T01:38:45;12.03;;;7.67;;
15958;SDS011;8078;47.822;9.402;2022-10-04T01:41:11;14.87;;;7.07;;
15958;SDS011;8078;47.822;9.402;2022-10-04T01:43:41;14.20;;;7.77;;
15958;SDS011;8078;47.822;9.402;2022-10-04T01:46:22;13.57;;;7.50;;
15958;SDS011;8078;47.822;9.402;2022-10-04T01:48:51;12.90;;;6.53;;
15958;SDS011;8078;47.822;9.402;2022-10-04T01:51:24;11.17;;;7.00;;
15958;SDS011;8078;47.822;9.402;2022-10-04T01:56:23;12.40;;;7.60;;
15958;SDS011;8078;47.822;9.402;2022-10-04T01:58:58;22.80;;;7.63;;
15958;SDS011;8078;47.822;9.402;2022-10-04T02:01:28;10.77;;;7.17;;
15958;SDS011;8078;47.822;9.402;2022-10-04T02:06:28;13.97;;;7.57;;
15958;SDS011;8078;47.822;9.402;2022-10-04T02:09:00;13.57;;;6.77;;
15958;SDS011;8078;47.822;9.402;2022-10-04T02:11:31;9.37;;;6.83;;
15958;SDS011;8078;47.822;9.402;2022-10-04T02:13:58;10.03;;;6.87;;
15958;SDS011;8078;47.822;9.402;2022-10-04T02:16:25;12.30;;;7.03;;
15958;SDS011;8078;47.822;9.402;2022-10-04T02:18:51;11.00;;;6.73;;
15958;SDS011;8078;47.822;9.402;2022-10-04T02:21:18;11.87;;;6.80;;
15958;SDS011;8078;47.822;9.402;2022-10-04T02:23:45;14.23;;;7.27;;
15958;SDS011;8078;47.822;9.402;2022-10-04T02:26:11;12.57;;;7.03;;
15958;SDS011;8078;47.822;9.402;2022-10-04T02:28:37;15.43;;;7.03;;
15958;SDS011;8078;47.822;9.402;2022-10-04T02:31:04;13.53;;;7.33;;
15958;SDS011;8078;47.822;9.402;2022-10-04T02:33:49;10.10;;;7.37;;
15958;SDS011;8078;47.822;9.402;2022-10-04T02:36:17;13.00;;;7.90;;
15958;SDS011;8078;47.822;9.402;2022-10-04T02:38:53;12.37;;;6.53;;
15958;SDS011;8078;47.822;9.402;2022-10-04T02:41:37;10.67;;;6.87;;
15958;SDS011;8078;47.822;9.402;2022-10-04T02:44:14;11.13;;;6.17;;
15958;SDS011;8078;47.822;9.402;2022-10-04T02:46:52;10.13;;;6.87;;
15958;SDS011;8078;47.822;9.402;2022-10-04T02:49:34;10.07;;;6.00;;
15958;SDS011;8078;47.822;9.402;2022-10-04T02:52:08;10.73;;;6.10;;
15958;SDS011;8078;47.822;9.402;2022-10-04T02:54:44;13.27;;;7.10;;
15958;SDS011;8078;47.822;9.402;2022-10-04T02:57:26;11.77;;;6.97;;
15958;SDS011;8078;47.822;9.402;2022-10-04T03:00:00;12.67;;;7.27;;
15958;SDS011;8078;47.822;9.402;2022-10-04T03:05:40;11.43;;;6.60;;
15958;SDS011;8078;47.822;9.402;2022-10-04T03:08:25;9.87;;;6.90;;
15958;SDS011;8078;47.822;9.402;2022-10-04T03:10:54;12.90;;;7.10;;
15958;SDS011;8078;47.822;9.402;2022-10-04T03:13:23;12.97;;;7.03;;
15958;SDS011;8078;47.822;9.402;2022-10-04T03:15:49;10.50;;;7.00;;
15958;SDS011;8078;47.822;9.402;2022-10-04T03:18:15;12.00;;;6.60;;
15958;SDS011;8078;47.822;9.402;2022-10-04T03:20:42;13.77;;;7.07;;
15958;SDS011;8078;47.822;9.402;2022-10-04T03:23:08;11.67;;;6.70;;
15958;SDS011;8078;47.822;9.402;2022-10-04T03:25:46;10.47;;;6.67;;
15958;SDS011;8078;47.822;9.402;2022-10-04T03:28:26;10.80;;;5.93;;
15958;SDS011;8078;47.822;9.402;2022-10-04T03:30:54;9.80;;;6.20;;
15958;SDS011;8078;47.822;9.402;2022-10-04T03:33:22;13.50;;;6.60;;
15958;SDS011;8078;47.822;9.402;2022-10-04T03:35:51;10.10;;;6.47;;
15958;SDS011;8078;47.822;9.402;2022-10-04T03:38:19;10.10;;;6.00;;
15958;SDS011;8078;47.822;9.402;2022-10-04T03:40:48;9.77;;;5.80;;
15958;SDS011;8078;47.822;9.402;2022-10-04T03:43:17;8.70;;;5.40;;
15958;SDS011;8078;47.822;9.402;2022-10-04T03:45:45;8.73;;;5.83;;
15958;SDS011;8078;47.822;9.402;2022-10-04T03:48:12;9.00;;;5.53;;
15958;SDS011;8078;47.822;9.402;2022-10-04T03:50:50;8.80;;;6.20;;
15958;SDS011;8078;47.822;9.402;2022-10-04T03:53:27;8.90;;;6.00;;
15958;SDS011;8078;47.822;9.402;2022-10-04T03:56:00;9.40;;;6.10;;
15958;SDS011;8078;47.822;9.402;2022-10-04T03:58:27;8.70;;;6.37;;
15958;SDS011;8078;47.822;9.402;2022-10-04T04:03:52;11.23;;;6.50;;
15958;SDS011;8078;47.822;9.402;2022-10-04T04:06:19;11.07;;;6.57;;
15958;SDS011;8078;47.822;9.402;2022-10-04T04:08:47;11.07;;;6.40;;
15958;SDS011;8078;47.822;9.402;2022-10-04T04:11:18;12.83;;;6.80;;
15958;SDS011;8078;47.822;9.402;2022-10-04T04:16:21;11.40;;;6.30;;
15958;SDS011;8078;47.822;9.402;2022-10-04T04:18:50;9.50;;;6.40;;
15958;SDS011;8078;47.822;9.402;2022-10-04T04:21:18;8.30;;;5.57;;
15958;SDS011;8078;47.822;9.402;2022-10-04T04:23:52;12.40;;;5.63;;
15958;SDS011;8078;47.822;9.402;2022-10-04T04:26:27;11.33;;;5.53;;
15958;SDS011;8078;47.822;9.402;2022-10-04T04:29:25;8.30;;;6.30;;
15958;SDS011;8078;47.822;9.402;2022-10-04T04:31:58;10.10;;;6.00;;
15958;SDS011;8078;47.822;9.402;2022-10-04T04:34:29;10.40;;;5.40;;
15958;SDS011;8078;47.822;9.402;2022-10-04T04:36:58;9.80;;;5.60;;
15958;SDS011;8078;47.822;9.402;2022-10-04T04:39:27;8.03;;;5.30;;
15958;SDS011;8078;47.822;9.402;2022-10-04T04:42:26;9.60;;;5.47;;
15958;SDS011;8078;47.822;9.402;2022-10-04T04:45:03;6.30;;;4.90;;
15958;SDS011;8078;47.822;9.402;2022-10-04T04:47:38;7.37;;;5.17;;
15958;SDS011;8078;47.822;9.402;2022-10-04T04:50:12;5.53;;;4.50;;
15958;SDS011;8078;47.822;9.402;2022-10-04T04:52:46;8.43;;;5.27;;
15958;SDS011;8078;47.822;9.402;2022-10-04T04:55:25;9.40;;;5.10;;
15958;SDS011;8078;47.822;9.402;2022-10-04T04:57:53;9.40;;;5.60;;
15958;SDS011;8078;47.822;9.402;2022-10-04T05:00:22;5.97;;;4.87;;
15958;SDS011;8078;47.822;9.402;2022-10-04T05:02:53;9.80;;;4.47;;
15958;SDS011;8078;47.822;9.402;2022-10-04T05:05:22;8.50;;;4.73;;
15958;SDS011;8078;47.822;9.402;2022-10-04T05:08:02;5.83;;;4.90;;
15958;SDS011;8078;47.822;9.402;2022-10-04T05:10:41;6.23;;;4.57;;
15958;SDS011;8078;47.822;9.402;2022-10-04T05:13:13;6.83;;;4.10;;
15958;SDS011;8078;47.822;9.402;2022-10-04T05:15:40;5.73;;;4.07;;
15958;SDS011;8078;47.822;9.402;2022-10-04T05:18:20;9.77;;;4.60;;
15958;SDS011;8078;47.822;9.402;2022-10-04T05:20:58;6.03;;;4.57;;
15958;SDS011;8078;47.822;9.402;2022-10-04T05:23:29;6.67;;;4.80;;
15958;SDS011;8078;47.822;9.402;2022-10-04T05:25:55;5.33;;;4.33;;
15958;SDS011;8078;47.822;9.402;2022-10-04T05:28:24;5.07;;;4.33;;
15958;SDS011;8078;47.822;9.402;2022-10-04T05:31:00;5.80;;;4.43;;
15958;SDS011;8078;47.822;9.402;2022-10-04T05:33:51;8.23;;;4.80;;
15958;SDS011;8078;47.822;9.402;2022-10-04T05:39:14;7.47;;;4.90;;
15958;SDS011;8078;47.822;9.402;2022-10-04T05:41:55;7.27;;;4.90;;
15958;SDS011;8078;47.822;9.402;2022-10-04T05:46:53;5.37;;;4.30;;
15958;SDS011;8078;47.822;9.402;2022-10-04T05:49:21;4.30;;;3.90;;
15958;SDS011;8078;47.822;9.402;2022-10-04T05:51:53;6.70;;;4.77;;
15958;SDS011;8078;47.822;9.402;2022-10-04T05:54:24;7.83;;;5.30;;
15958;SDS011;8078;47.822;9.402;2022-10-04T05:59:38;7.63;;;5.33;;
15958;SDS011;8078;47.822;9.402;2022-10-04T06:02:35;8.95;;;5.80;;
15958;SDS011;8078;47.822;9.402;2022-10-04T06:05:22;7.97;;;6.03;;
15958;SDS011;8078;47.822;9.402;2022-10-04T06:08:06;12.50;;;6.63;;
15958;SDS011;8078;47.822;9.402;2022-10-04T06:11:02;13.43;;;6.97;;
15958;SDS011;8078;47.822;9.402;2022-10-04T06:16:21;15.37;;;7.70;;
15958;SDS011;8078;47.822;9.402;2022-10-04T06:24:49;11.77;;;7.17;;
15958;SDS011;8078;47.822;9.402;2022-10-04T06:30:15;10.40;;;6.87;;
15958;SDS011;8078;47.822;9.402;2022-10-04T06:37:58;11.17;;;6.80;;
15958;SDS011;8078;47.822;9.402;2022-10-04T06:46:06;11.73;;;7.17;;
15958;SDS011;8078;47.822;9.402;2022-10-04T06:48:45;8.75;;;6.72;;
15958;SDS011;8078;47.822;9.402;2022-10-04T07:02:15;13.40;;;6.63;;
15958;SDS011;8078;47.822;9.402;2022-10-04T07:07:24;13.55;;;6.88;;
15958;SDS011;8078;47.822;9.402;2022-10-04T07:12:33;19.93;;;8.63;;
15958;SDS011;8078;47.822;9.402;2022-10-04T07:15:07;237.80;;;16.77;;
15958;SDS011;8078;47.822;9.402;2022-10-04T07:18:02;384.73;;;23.10;;
15958;SDS011;8078;47.822;9.402;2022-10-04T07:20:32;350.93;;;20.30;;
15958;SDS011;8078;47.822;9.402;2022-10-04T07:23:02;466.93;;;24.13;;
15958;SDS011;8078;47.822;9.402;2022-10-04T07:25:36;490.87;;;24.50;;
15958;SDS011;8078;47.822;9.402;2022-10-04T07:28:13;513.33;;;29.27;;
15958;SDS011;8078;47.822;9.402;2022-10-04T07:31:02;655.03;;;37.00;;
15958;SDS011;8078;47.822;9.402;2022-10-04T07:33:35;344.10;;;18.57;;
15958;SDS011;8078;47.822;9.402;2022-10-04T07:36:09;147.97;;;11.77;;
15958;SDS011;8078;47.822;9.402;2022-10-04T07:38:41;605.90;;;30.13;;
15958;SDS011;8078;47.822;9.402;2022-10-04T07:41:17;542.60;;;27.20;;
15958;SDS011;8078;47.822;9.402;2022-10-04T07:43:54;438.60;;;26.07;;
15958;SDS011;8078;47.822;9.402;2022-10-04T07:49:18;438.40;;;21.83;;
15958;SDS011;8078;47.822;9.402;2022-10-04T08:03:03;37.10;;;8.80;;
15958;SDS011;8078;47.822;9.402;2022-10-04T08:05:34;212.63;;;15.60;;
15958;SDS011;8078;47.822;9.402;2022-10-04T08:08:35;148.67;;;13.03;;
15958;SDS011;8078;47.822;9.402;2022-10-04T08:14:18;36.70;;;9.20;;
15958;SDS011;8078;47.822;9.402;2022-10-04T08:17:10;615.63;;;38.30;;
15958;SDS011;8078;47.822;9.402;2022-10-04T08:22:21;231.53;;;15.97;;
15958;SDS011;8078;47.822;9.402;2022-10-04T08:25:08;766.93;;;44.33;;
15958;SDS011;8078;47.822;9.402;2022-10-04T08:33:35;845.50;;;52.57;;
15958;SDS011;8078;47.822;9.402;2022-10-04T08:39:02;593.90;;;40.50;;
15958;SDS011;8078;47.822;9.402;2022-10-04T08:41:57;731.40;;;49.23;;
15958;SDS011;8078;47.822;9.402;2022-10-04T08:47:45;807.80;;;58.83;;
15958;SDS011;8078;47.822;9.402;2022-10-04T08:50:57;841.27;;;65.57;;
15958;SDS011;8078;47.822;9.402;2022-10-04T09:19:52;145.80;;;16.73;;
15958;SDS011;8078;47.822;9.402;2022-10-04T09:22:34;303.73;;;24.13;;
15958;SDS011;8078;47.822;9.402;2022-10-04T09:25:18;135.90;;;14.37;;
15958;SDS011;8078;47.822;9.402;2022-10-04T09:27:49;23.13;;;11.20;;
15958;SDS011;8078;47.822;9.402;2022-10-04T09:36:09;17.73;;;9.50;;
15958;SDS011;8078;47.822;9.402;2022-10-04T09:39:03;13.35;;;9.07;;
15958;SDS011;8078;47.822;9.402;2022-10-04T09:50:33;11.35;;;7.93;;
15958;SDS011;8078;47.822;9.402;2022-10-04T09:53:33;9.02;;;6.82;;
15958;SDS011;8078;47.822;9.402;2022-10-04T10:07:23;9.80;;;7.47;;
15958;SDS011;8078;47.822;9.402;2022-10-04T10:10:28;11.55;;;8.02;;
15958;SDS011;8078;47.822;9.402;2022-10-04T10:46:41;8.43;;;5.25;;
15958;SDS011;8078;47.822;9.402;2022-10-04T10:52:12;7.10;;;4.30;;
15958;SDS011;8078;47.822;9.402;2022-10-04T11:06:17;6.90;;;4.00;;
15958;SDS011;8078;47.822;9.402;2022-10-04T11:14:18;4.72;;;3.42;;
15958;SDS011;8078;47.822;9.402;2022-10-04T11:22:51;5.32;;;4.20;;
15958;SDS011;8078;47.822;9.402;2022-10-04T11:33:58;6.78;;;4.47;;
15958;SDS011;8078;47.822;9.402;2022-10-04T11:36:37;3.78;;;2.95;;
15958;SDS011;8078;47.822;9.402;2022-10-04T11:39:42;10.25;;;4.68;;
15958;SDS011;8078;47.822;9.402;2022-10-04T11:57:07;7.97;;;5.28;;
15958;SDS011;8078;47.822;9.402;2022-10-04T12:02:37;5.45;;;4.28;;
15958;SDS011;8078;47.822;9.402;2022-10-04T12:08:25;5.43;;;4.00;;
15958;SDS011;8078;47.822;9.402;2022-10-04T12:14:41;3.40;;;2.80;;
15958;SDS011;8078;47.822;9.402;2022-10-04T12:31:48;5.40;;;3.50;;
15958;SDS011;8078;47.822;9.402;2022-10-04T12:34:28;4.45;;;3.47;;
15958;SDS011;8078;47.822;9.402;2022-10-04T12:42:32;3.67;;;3.13;;
15958;SDS011;8078;47.822;9.402;2022-10-04T12:45:22;7.82;;;2.80;;
15958;SDS011;8078;47.822;9.402;2022-10-04T12:48:01;2.97;;;2.38;;
15958;SDS011;8078;47.822;9.402;2022-10-04T12:53:35;1.80;;;1.65;;
15958;SDS011;8078;47.822;9.402;2022-10-04T12:59:09;2.40;;;2.20;;
15958;SDS011;8078;47.822;9.402;2022-10-04T13:02:04;3.63;;;2.50;;
15958;SDS011;8078;47.822;9.402;2022-10-04T13:04:47;3.58;;;1.95;;
15958;SDS011;8078;47.822;9.402;2022-10-04T13:15:28;2.70;;;1.67;;
15958;SDS011;8078;47.822;9.402;2022-10-04T13:18:17;5.50;;;2.42;;
15958;SDS011;8078;47.822;9.402;2022-10-04T13:21:02;3.78;;;2.38;;
15958;SDS011;8078;47.822;9.402;2022-10-04T13:26:11;2.72;;;1.67;;
15958;SDS011;8078;47.822;9.402;2022-10-04T13:28:50;2.08;;;1.88;;
15958;SDS011;8078;47.822;9.402;2022-10-04T13:39:21;4.28;;;3.13;;
15958;SDS011;8078;47.822;9.402;2022-10-04T13:45:01;3.40;;;3.10;;
15958;SDS011;8078;47.822;9.402;2022-10-04T13:47:55;4.05;;;3.50;;
15958;SDS011;8078;47.822;9.402;2022-10-04T14:10:17;4.13;;;3.47;;
15958;SDS011;8078;47.822;9.402;2022-10-04T14:15:47;4.32;;;2.83;;
15958;SDS011;8078;47.822;9.402;2022-10-04T14:32:50;1.95;;;1.75;;
15958;SDS011;8078;47.822;9.402;2022-10-04T14:35:34;1.80;;;1.70;;
15958;SDS011;8078;47.822;9.402;2022-10-04T15:03:59;2.00;;;1.30;;
15958;SDS011;8078;47.822;9.402;2022-10-04T15:06:49;2.53;;;1.48;;
15958;SDS011;8078;47.822;9.402;2022-10-04T15:09:24;2.75;;;1.63;;
15958;SDS011;8078;47.822;9.402;2022-10-04T15:14:41;1.85;;;1.52;;
15958;SDS011;8078;47.822;9.402;2022-10-04T15:33:59;3.50;;;2.75;;
15958;SDS011;8078;47.822;9.402;2022-10-04T15:36:41;5.85;;;2.80;;
15958;SDS011;8078;47.822;9.402;2022-10-04T15:41:57;3.40;;;2.40;;
15958;SDS011;8078;47.822;9.402;2022-10-04T15:47:29;3.40;;;2.72;;
15958;SDS011;8078;47.822;9.402;2022-10-04T16:07:50;8.68;;;3.67;;
15958;SDS011;8078;47.822;9.402;2022-10-04T16:13:16;3.92;;;3.35;;
15958;SDS011;8078;47.822;9.402;2022-10-04T16:21:30;18.95;;;11.25;;
15958;SDS011;8078;47.822;9.402;2022-10-04T16:32:11;6.18;;;5.05;;
15958;SDS011;8078;47.822;9.402;2022-10-04T16:42:46;7.15;;;5.10;;
15958;SDS011;8078;47.822;9.402;2022-10-04T16:45:29;7.13;;;4.93;;
15958;SDS011;8078;47.822;9.402;2022-10-04T16:51:06;5.68;;;5.07;;
15958;SDS011;8078;47.822;9.402;2022-10-04T16:53:52;8.15;;;5.57;;
15958;SDS011;8078;47.822;9.402;2022-10-04T16:56:28;7.10;;;5.65;;
15958;SDS011;8078;47.822;9.402;2022-10-04T16:58:58;7.50;;;5.88;;
15958;SDS011;8078;47.822;9.402;2022-10-04T17:01:29;4.65;;;3.70;;
15958;SDS011;8078;47.822;9.402;2022-10-04T17:04:24;6.90;;;6.18;;
15958;SDS011;8078;47.822;9.402;2022-10-04T17:06:59;7.07;;;6.10;;
15958;SDS011;8078;47.822;9.402;2022-10-04T17:09:57;3.35;;;3.05;;
15958;SDS011;8078;47.822;9.402;2022-10-04T17:25:43;6.93;;;3.65;;
15958;SDS011;8078;47.822;9.402;2022-10-04T17:28:17;4.35;;;3.33;;
15958;SDS011;8078;47.822;9.402;2022-10-04T17:30:50;4.80;;;2.88;;
15958;SDS011;8078;47.822;9.402;2022-10-04T17:36:15;5.45;;;2.85;;
15958;SDS011;8078;47.822;9.402;2022-10-04T17:42:22;4.00;;;3.42;;
15958;SDS011;8078;47.822;9.402;2022-10-04T17:47:12;5.13;;;4.43;;
15958;SDS011;8078;47.822;9.402;2022-10-04T17:50:04;7.00;;;4.72;;
15958;SDS011;8078;47.822;9.402;2022-10-04T17:53:01;4.82;;;4.20;;
15958;SDS011;8078;47.822;9.402;2022-10-04T17:55:54;8.70;;;4.78;;
15958;SDS011;8078;47.822;9.402;2022-10-04T17:58:24;6.78;;;5.28;;
15958;SDS011;8078;47.822;9.402;2022-10-04T18:01:23;6.70;;;5.60;;
15958;SDS011;8078;47.822;9.402;2022-10-04T18:18:14;7.03;;;5.87;;
15958;SDS011;8078;47.822;9.402;2022-10-04T18:23:27;8.63;;;5.97;;
15958;SDS011;8078;47.822;9.402;2022-10-04T18:28:42;9.30;;;6.37;;
15958;SDS011;8078;47.822;9.402;2022-10-04T18:33:56;7.47;;;5.77;;
15958;SDS011;8078;47.822;9.402;2022-10-04T18:36:55;7.88;;;5.22;;
15958;SDS011;8078;47.822;9.402;2022-10-04T18:39:29;8.43;;;5.30;;
15958;SDS011;8078;47.822;9.402;2022-10-04T18:44:57;7.23;;;4.93;;
15958;SDS011;8078;47.822;9.402;2022-10-04T18:47:35;6.40;;;5.10;;
15958;SDS011;8078;47.822;9.402;2022-10-04T18:50:17;7.60;;;5.65;;
15958;SDS011;8078;47.822;9.402;2022-10-04T18:53:21;8.60;;;5.30;;
15958;SDS011;8078;47.822;9.402;2022-10-04T18:56:01;10.03;;;5.17;;
15958;SDS011;8078;47.822;9.402;2022-10-04T19:04:41;7.83;;;6.33;;
15958;SDS011;8078;47.822;9.402;2022-10-04T19:07:14;7.93;;;6.40;;
15958;SDS011;8078;47.822;9.402;2022-10-04T19:10:05;10.57;;;7.20;;
15958;SDS011;8078;47.822;9.402;2022-10-04T19:12:52;8.23;;;6.00;;
15958;SDS011;8078;47.822;9.402;2022-10-04T19:18:16;7.40;;;6.40;;
15958;SDS011;8078;47.822;9.402;2022-10-04T19:21:06;8.33;;;6.43;;
15958;SDS011;8078;47.822;9.402;2022-10-04T19:26:13;10.43;;;7.13;;
15958;SDS011;8078;47.822;9.402;2022-10-04T19:28:44;7.03;;;6.10;;
15958;SDS011;8078;47.822;9.402;2022-10-04T19:31:22;6.80;;;5.77;;
15958;SDS011;8078;47.822;9.402;2022-10-04T19:34:25;9.63;;;6.43;;
15958;SDS011;8078;47.822;9.402;2022-10-04T19:37:09;7.23;;;6.00;;
15958;SDS011;8078;47.822;9.402;2022-10-04T19:39:48;6.80;;;5.60;;
15958;SDS011;8078;47.822;9.402;2022-10-04T19:42:22;7.80;;;5.47;;
15958;SDS011;8078;47.822;9.402;2022-10-04T19:45:16;6.40;;;5.60;;
15958;SDS011;8078;47.822;9.402;2022-10-04T19:47:53;8.30;;;5.60;;
15958;SDS011;8078;47.822;9.402;2022-10-04T19:50:34;6.50;;;5.47;;
15958;SDS011;8078;47.822;9.402;2022-10-04T19:53:13;8.33;;;5.90;;
15958;SDS011;8078;47.822;9.402;2022-10-04T19:55:55;9.03;;;7.20;;
15958;SDS011;8078;47.822;9.402;2022-10-04T19:58:40;9.73;;;6.83;;
15958;SDS011;8078;47.822;9.402;2022-10-04T20:01:15;11.97;;;7.97;;
15958;SDS011;8078;47.822;9.402;2022-10-04T20:03:44;10.63;;;8.60;;
15958;SDS011;8078;47.822;9.402;2022-10-04T20:06:18;12.20;;;7.27;;
15958;SDS011;8078;47.822;9.402;2022-10-04T20:14:41;10.07;;;8.43;;
15958;SDS011;8078;47.822;9.402;2022-10-04T20:27:06;11.27;;;8.40;;
15958;SDS011;8078;47.822;9.402;2022-10-04T20:35:02;14.77;;;9.83;;
15958;SDS011;8078;47.822;9.402;2022-10-04T20:45:45;12.80;;;9.73;;
15958;SDS011;8078;47.822;9.402;2022-10-04T20:48:25;11.23;;;8.83;;
15958;SDS011;8078;47.822;9.402;2022-10-04T20:50:51;13.27;;;9.70;;
15958;SDS011;8078;47.822;9.402;2022-10-04T20:53:22;15.67;;;9.13;;
15958;SDS011;8078;47.822;9.402;2022-10-04T20:55:51;12.13;;;8.60;;
15958;SDS011;8078;47.822;9.402;2022-10-04T20:58:41;11.83;;;8.77;;
15958;SDS011;8078;47.822;9.402;2022-10-04T21:01:21;10.80;;;7.50;;
15958;SDS011;8078;47.822;9.402;2022-10-04T21:04:10;11.73;;;8.20;;
15958;SDS011;8078;47.822;9.402;2022-10-04T21:07:11;13.30;;;9.27;;
15958;SDS011;8078;47.822;9.402;2022-10-04T21:09:47;14.00;;;9.50;;
15958;SDS011;8078;47.822;9.402;2022-10-04T21:12:26;14.60;;;11.27;;
15958;SDS011;8078;47.822;9.402;2022-10-04T21:15:04;16.30;;;11.70;;
15958;SDS011;8078;47.822;9.402;2022-10-04T21:19:55;25.90;;;14.80;;
15958;SDS011;8078;47.822;9.402;2022-10-04T21:29:59;23.17;;;17.23;;
15958;SDS011;8078;47.822;9.402;2022-10-04T21:32:27;20.83;;;15.07;;
15958;SDS011;8078;47.822;9.402;2022-10-04T21:34:58;18.65;;;13.85;;
15958;SDS011;8078;47.822;9.402;2022-10-04T21:37:24;20.43;;;14.97;;
15958;SDS011;8078;47.822;9.402;2022-10-04T21:39:49;24.17;;;16.15;;
15958;SDS011;8078;47.822;9.402;2022-10-04T21:42:15;20.90;;;13.77;;
15958;SDS011;8078;47.822;9.402;2022-10-04T21:44:41;21.23;;;14.53;;
15958;SDS011;8078;47.822;9.402;2022-10-04T21:47:06;19.67;;;15.53;;
15958;SDS011;8078;47.822;9.402;2022-10-04T21:49:32;21.57;;;16.13;;
15958;SDS011;8078;47.822;9.402;2022-10-04T21:51:57;22.00;;;16.53;;
15958;SDS011;8078;47.822;9.402;2022-10-04T21:54:23;22.00;;;16.27;;
15958;SDS011;8078;47.822;9.402;2022-10-04T21:56:48;24.13;;;17.17;;
15958;SDS011;8078;47.822;9.402;2022-10-04T21:59:14;27.17;;;17.27;;
15958;SDS011;8078;47.822;9.402;2022-10-04T22:01:40;21.57;;;16.13;;
15958;SDS011;8078;47.822;9.402;2022-10-04T22:04:05;26.33;;;17.90;;
15958;SDS011;8078;47.822;9.402;2022-10-04T22:06:31;24.00;;;17.60;;
15958;SDS011;8078;47.822;9.402;2022-10-04T22:08:56;25.83;;;17.80;;
15958;SDS011;8078;47.822;9.402;2022-10-04T22:11:22;25.33;;;18.47;;
15958;SDS011;8078;47.822;9.402;2022-10-04T22:13:47;29.88;;;18.50;;
15958;SDS011;8078;47.822;9.402;2022-10-04T22:16:13;28.27;;;19.23;;
15958;SDS011;8078;47.822;9.402;2022-10-04T22:18:39;27.13;;;19.37;;
15958;SDS011;8078;47.822;9.402;2022-10-04T22:21:05;30.43;;;21.77;;
15958;SDS011;8078;47.822;9.402;2022-10-04T22:23:36;32.80;;;22.67;;
15958;SDS011;8078;47.822;9.402;2022-10-04T22:28:36;23.77;;;15.77;;
15958;SDS011;8078;47.822;9.402;2022-10-04T22:31:12;22.33;;;14.07;;
15958;SDS011;8078;47.822;9.402;2022-10-04T22:33:41;19.70;;;13.30;;
15958;SDS011;8078;47.822;9.402;2022-10-04T22:36:22;22.73;;;15.77;;
15958;SDS011;8078;47.822;9.402;2022-10-04T22:38:59;25.40;;;17.17;;
15958;SDS011;8078;47.822;9.402;2022-10-04T22:41:39;20.87;;;14.63;;
15958;SDS011;8078;47.822;9.402;2022-10-04T22:44:13;23.77;;;16.67;;
15958;SDS011;8078;47.822;9.402;2022-10-04T22:46:41;24.57;;;17.33;;
15958;SDS011;8078;47.822;9.402;2022-10-04T22:49:09;21.60;;;14.73;;
15958;SDS011;8078;47.822;9.402;2022-10-04T22:51:37;19.73;;;14.60;;
15958;SDS011;8078;47.822;9.402;2022-10-04T22:54:11;24.27;;;16.37;;
15958;SDS011;8078;47.822;9.402;2022-10-04T22:56:39;22.93;;;16.03;;
15958;SDS011;8078;47.822;9.402;2022-10-04T22:59:07;23.83;;;15.63;;
15958;SDS011;8078;47.822;9.402;2022-10-04T23:01:34;25.70;;;17.03;;
15958;SDS011;8078;47.822;9.402;2022-10-04T23:03:59;29.17;;;18.73;;
15958;SDS011;8078;47.822;9.402;2022-10-04T23:06:25;30.03;;;19.47;;
15958;SDS011;8078;47.822;9.402;2022-10-04T23:08:50;29.13;;;18.80;;
15958;SDS011;8078;47.822;9.402;2022-10-04T23:11:16;27.23;;;18.07;;
15958;SDS011;8078;47.822;9.402;2022-10-04T23:13:41;28.90;;;17.00;;
15958;SDS011;8078;47.822;9.402;2022-10-04T23:16:17;29.30;;;17.63;;
15958;SDS011;8078;47.822;9.402;2022-10-04T23:18:45;23.83;;;16.73;;
15958;SDS011;8078;47.822;9.402;2022-10-04T23:21:17;20.47;;;15.47;;
15958;SDS011;8078;47.822;9.402;2022-10-04T23:23:45;20.40;;;15.87;;
15958;SDS011;8078;47.822;9.402;2022-10-04T23:26:12;26.13;;;16.70;;
15958;SDS011;8078;47.822;9.402;2022-10-04T23:28:42;24.73;;;16.30;;
15958;SDS011;8078;47.822;9.402;2022-10-04T23:31:12;24.57;;;16.03;;
15958;SDS011;8078;47.822;9.402;2022-10-04T23:33:49;27.77;;;16.43;;
15958;SDS011;8078;47.822;9.402;2022-10-04T23:36:16;23.97;;;16.47;;
15958;SDS011;8078;47.822;9.402;2022-10-04T23:38:50;17.20;;;13.80;;
15958;SDS011;8078;47.822;9.402;2022-10-04T23:41:20;18.83;;;13.77;;
15958;SDS011;8078;47.822;9.402;2022-10-04T23:43:46;16.43;;;12.30;;
15958;SDS011;8078;47.822;9.402;2022-10-04T23:46:14;15.10;;;9.90;;
15958;SDS011;8078;47.822;9.402;2022-10-04T23:48:43;14.83;;;10.17;;
15958;SDS011;8078;47.822;9.402;2022-10-04T23:51:13;13.17;;;10.33;;
15958;SDS011;8078;47.822;9.402;2022-10-04T23:53:42;13.63;;;9.90;;
15958;SDS011;8078;47.822;9.402;2022-10-04T23:56:17;18.58;;;10.70;;
15958;SDS011;8078;47.822;9.402;2022-10-04T23:58:45;15.00;;;10.35;;
